All Healing Springs, North Carolina
Current Conditions -  °F | °C
As of 3:44 AM on Wednesday 26 Nov 2014 (Local Time) from KHKY Reporting Station
Moderate Rain Moderate Rain  
Wind Chill: 43°   Ceiling: 7000
Heat Index: 43°   Visibility: 4mi
Dew Point: 42°   Wind: 0mph
Humidity: 97%   Direction: NA
Pressure: 29.97"   Gusts: NA
Location:  35.9243°N, 81.216°W
Report Text: KHKY 260844Z AUTO 00000KT 4SM RA BR SCT050 OVC070 06/06 A2997 RMK AO2 P0013 T00610056
Loading
Personal Weather Stations






























Interactive Weather Map New forecast layout! Learn more

10-Day Weather Forecast

Advertisements
Track Severe Weather on mobile